Sebat — 3FWW6 — position and weather

sailwx.info

Track history (hours):
 
Tides and Currents Weather Stations Pressure Air Temp Water Temp Dewpoint Dewpoint Depression Visibility Wind Speed Wind Dir Waves Ship Positions

Sebat

Last reported at 2018-Jan-22 10:30 UTC. Time now 2018-Jan-22 10:36 UTC.
Position N 44°44' E 037°47'.

Length 148 m; draft 5.5 m.

Type: Cargo ship. MMSI: 374881000.

Date/timePositionNaut miles runAvg speedWind from/ knotsBaromVisibWave heightAir tempDewpointWater temp
2018-Jan-22 10:30N 44°44' E 037°47'0 0.0
2018-Jan-22 10:00N 44°44' E 037°47'0 0.0
2018-Jan-22 09:30N 44°44' E 037°47'0 0.0
2018-Jan-22 09:00N 44°44' E 037°47'0 0.0
2018-Jan-22 08:30N 44°44' E 037°47'0 0.0
2018-Jan-22 08:00N 44°44' E 037°47'0 0.0
2018-Jan-22 07:30N 44°44' E 037°47'0 0.0
2018-Jan-22 07:00N 44°44' E 037°47'0 0.0
2018-Jan-22 06:30N 44°44' E 037°47'0 0.0
2018-Jan-22 06:00N 44°44' E 037°47'0 0.0
2018-Jan-22 05:30N 44°44' E 037°47'0 0.0
2018-Jan-22 05:00N 44°44' E 037°47'0 0.0
2018-Jan-22 04:30N 44°44' E 037°47'0 0.0
2018-Jan-22 04:00N 44°44' E 037°47'0 0.0
2018-Jan-22 03:30N 44°44' E 037°47'0 0.0
2018-Jan-22 03:00N 44°44' E 037°47'0 0.0
2018-Jan-22 02:30N 44°44' E 037°47'0 0.0
2018-Jan-22 02:00N 44°44' E 037°47'0 0.0
2018-Jan-22 01:30N 44°44' E 037°47'0 0.0
2018-Jan-22 01:00N 44°44' E 037°47'0 0.0
2018-Jan-22 00:30N 44°44' E 037°47'0 0.0
2018-Jan-22 00:00N 44°44' E 037°47'0 0.0
2018-Jan-21 23:30N 44°44' E 037°47'0 0.0
2018-Jan-21 23:00N 44°44' E 037°47'0 0.0
2018-Jan-21 22:31N 44°44' E 037°47'0 0.0
2018-Jan-21 22:00N 44°44' E 037°47'0 0.0
2018-Jan-21 21:31N 44°44' E 037°47'0 0.0
2018-Jan-21 21:01N 44°44' E 037°47'0 0.0
2018-Jan-21 20:31N 44°44' E 037°47'0 0.0
2018-Jan-21 20:01N 44°44' E 037°47'2 4.2
2018-Jan-21 19:30N 44°42' E 037°49'3 6.7
2018-Jan-21 19:00N 44°39' E 037°51'2 3.5
2018-Jan-21 18:30N 44°37' E 037°51'0 0.3
2018-Jan-21 18:00N 44°37' E 037°51'1 2.0
2018-Jan-21 17:30N 44°36' E 037°50'4 8.9
2018-Jan-21 17:00N 44°32' E 037°47'611.5
2018-Jan-21 16:28N 44°26' E 037°50'16 1.6
2018-Jan-21 06:28N 44°15' E 037°34'5 1.6
2018-Jan-21 03:12N 44°14' E 037°42'210.5
2018-Jan-21 03:00N 44°16' E 037°43'510.6
2018-Jan-21 02:30N 44°21' E 037°47'510.6
2018-Jan-21 02:00N 44°25' E 037°51'510.1
2018-Jan-21 01:31N 44°30' E 037°54'1 1.9
2018-Jan-21 01:01N 44°29' E 037°53'1 1.7
2018-Jan-21 00:31N 44°28' E 037°52'1 1.8
2018-Jan-21 00:00N 44°27' E 037°52'1 2.0
2018-Jan-20 23:30N 44°27' E 037°51'1 2.2
2018-Jan-20 23:01N 44°26' E 037°50'1 2.2
2018-Jan-20 22:31N 44°25' E 037°49'1 2.3
2018-Jan-20 21:59N 44°24' E 037°48'4 6.8
2018-Jan-20 21:24N 44°27' E 037°45'3 8.4
2018-Jan-20 21:01N 44°30' E 037°42'2 4.7
2018-Jan-20 20:30N 44°28' E 037°40'6 6.7
2018-Jan-20 19:35N 44°22' E 037°38'1 6.5
2018-Jan-20 19:29N 44°22' E 037°37'6 1.0
2018-Jan-20 14:06N 44°20' E 037°30'1 8.8
2018-Jan-20 14:00N 44°20' E 037°29'0 0.9
2018-Jan-20 13:30N 44°20' E 037°29'3 2.4
2018-Jan-20 12:23N 44°18' E 037°31'1 2.3
2018-Jan-20 12:00N 44°17' E 037°32'1 2.2
2018-Jan-20 11:31N 44°16' E 037°33'2 2.2
2018-Jan-20 10:49N 44°15' E 037°33'1 2.3
2018-Jan-20 10:29N 44°14' E 037°34'11 5.0
2018-Jan-20 08:21N 44°12' E 037°48'512.3
2018-Jan-20 07:59N 44°11' E 037°55'  
Track history (hours):
 
Tides and Currents Weather Stations Pressure Air Temp Water Temp Dewpoint Dewpoint Depression Visibility Wind Speed Wind Dir Waves Ship Positions

Sebat

Last reported at 2018-Jan-22 10:30 UTC. Time now 2018-Jan-22 10:36 UTC.
Position N 44°44' E 037°47'.

Length 148 m; draft 5.5 m.

Type: Cargo ship. MMSI: 374881000.

Date/timePositionNaut miles runAvg speedWind from/ knotsBaromVisibWave heightAir tempDewpointWater temp
2018-Jan-22 10:30N 44°44' E 037°47'0 0.0
2018-Jan-22 10:00N 44°44' E 037°47'0 0.0
2018-Jan-22 09:30N 44°44' E 037°47'0 0.0
2018-Jan-22 09:00N 44°44' E 037°47'0 0.0
2018-Jan-22 08:30N 44°44' E 037°47'0 0.0
2018-Jan-22 08:00N 44°44' E 037°47'0 0.0
2018-Jan-22 07:30N 44°44' E 037°47'0 0.0
2018-Jan-22 07:00N 44°44' E 037°47'0 0.0
2018-Jan-22 06:30N 44°44' E 037°47'0 0.0
2018-Jan-22 06:00N 44°44' E 037°47'0 0.0
2018-Jan-22 05:30N 44°44' E 037°47'0 0.0
2018-Jan-22 05:00N 44°44' E 037°47'0 0.0
2018-Jan-22 04:30N 44°44' E 037°47'0 0.0
2018-Jan-22 04:00N 44°44' E 037°47'0 0.0
2018-Jan-22 03:30N 44°44' E 037°47'0 0.0
2018-Jan-22 03:00N 44°44' E 037°47'0 0.0
2018-Jan-22 02:30N 44°44' E 037°47'0 0.0
2018-Jan-22 02:00N 44°44' E 037°47'0 0.0
2018-Jan-22 01:30N 44°44' E 037°47'0 0.0
2018-Jan-22 01:00N 44°44' E 037°47'0 0.0
2018-Jan-22 00:30N 44°44' E 037°47'0 0.0
2018-Jan-22 00:00N 44°44' E 037°47'0 0.0
2018-Jan-21 23:30N 44°44' E 037°47'0 0.0
2018-Jan-21 23:00N 44°44' E 037°47'0 0.0
2018-Jan-21 22:31N 44°44' E 037°47'0 0.0
2018-Jan-21 22:00N 44°44' E 037°47'0 0.0
2018-Jan-21 21:31N 44°44' E 037°47'0 0.0
2018-Jan-21 21:01N 44°44' E 037°47'0 0.0
2018-Jan-21 20:31N 44°44' E 037°47'0 0.0
2018-Jan-21 20:01N 44°44' E 037°47'2 4.2
2018-Jan-21 19:30N 44°42' E 037°49'3 6.7
2018-Jan-21 19:00N 44°39' E 037°51'2 3.5
2018-Jan-21 18:30N 44°37' E 037°51'0 0.3
2018-Jan-21 18:00N 44°37' E 037°51'1 2.0
2018-Jan-21 17:30N 44°36' E 037°50'4 8.9
2018-Jan-21 17:00N 44°32' E 037°47'611.5
2018-Jan-21 16:28N 44°26' E 037°50'16 1.6
2018-Jan-21 06:28N 44°15' E 037°34'5 1.6
2018-Jan-21 03:12N 44°14' E 037°42'210.5
2018-Jan-21 03:00N 44°16' E 037°43'510.6
2018-Jan-21 02:30N 44°21' E 037°47'510.6
2018-Jan-21 02:00N 44°25' E 037°51'510.1
2018-Jan-21 01:31N 44°30' E 037°54'1 1.9
2018-Jan-21 01:01N 44°29' E 037°53'1 1.7
2018-Jan-21 00:31N 44°28' E 037°52'1 1.8
2018-Jan-21 00:00N 44°27' E 037°52'1 2.0
2018-Jan-20 23:30N 44°27' E 037°51'1 2.2
2018-Jan-20 23:01N 44°26' E 037°50'1 2.2
2018-Jan-20 22:31N 44°25' E 037°49'1 2.3
2018-Jan-20 21:59N 44°24' E 037°48'4 6.8
2018-Jan-20 21:24N 44°27' E 037°45'3 8.4
2018-Jan-20 21:01N 44°30' E 037°42'2 4.7
2018-Jan-20 20:30N 44°28' E 037°40'6 6.7
2018-Jan-20 19:35N 44°22' E 037°38'1 6.5
2018-Jan-20 19:29N 44°22' E 037°37'6 1.0
2018-Jan-20 14:06N 44°20' E 037°30'1 8.8
2018-Jan-20 14:00N 44°20' E 037°29'0 0.9
2018-Jan-20 13:30N 44°20' E 037°29'3 2.4
2018-Jan-20 12:23N 44°18' E 037°31'1 2.3
2018-Jan-20 12:00N 44°17' E 037°32'1 2.2
2018-Jan-20 11:31N 44°16' E 037°33'2 2.2
2018-Jan-20 10:49N 44°15' E 037°33'1 2.3
2018-Jan-20 10:29N 44°14' E 037°34'11 5.0
2018-Jan-20 08:21N 44°12' E 037°48'512.3
2018-Jan-20 07:59N 44°11' E 037°55'  

Dump ship's entire track history